createdAt,value
2018-12-21T00:01:46.200Z,13.47
2018-12-21T00:04:14.640Z,16.60
2018-12-21T00:06:43.085Z,14.77
2018-12-21T00:09:12.465Z,15.47
2018-12-21T00:11:41.376Z,13.73
2018-12-21T00:14:09.806Z,15.47
2018-12-21T00:16:38.284Z,12.60
2018-12-21T00:19:06.728Z,11.63
2018-12-21T00:21:35.335Z,14.97
2018-12-21T00:24:03.892Z,12.73
2018-12-21T00:26:32.940Z,18.87
2018-12-21T00:29:01.947Z,19.10
2018-12-21T00:31:35.759Z,21.50
2018-12-21T00:34:10.478Z,23.20
2018-12-21T00:36:44.241Z,22.27
2018-12-21T00:39:18.534Z,26.68
2018-12-21T00:41:46.372Z,23.87
2018-12-21T00:44:19.012Z,25.57
2018-12-21T00:46:54.070Z,27.03
2018-12-21T00:49:23.629Z,28.33
2018-12-21T00:51:52.994Z,21.87
2018-12-21T00:54:21.597Z,17.30
2018-12-21T00:56:50.014Z,18.57
2018-12-21T00:59:18.434Z,17.47
2018-12-21T01:01:47.006Z,13.37
2018-12-21T01:04:15.460Z,15.00
2018-12-21T01:06:43.960Z,16.30
2018-12-21T01:09:13.373Z,17.25
2018-12-21T01:11:42.114Z,16.17
2018-12-21T01:14:10.675Z,16.37
2018-12-21T01:16:39.083Z,15.43
2018-12-21T01:19:07.624Z,15.67
2018-12-21T01:21:38.877Z,16.83
2018-12-21T01:24:06.629Z,13.67
2018-12-21T01:26:35.117Z,16.60
2018-12-21T01:29:03.668Z,14.87
2018-12-21T01:31:32.093Z,13.50
2018-12-21T01:34:00.477Z,15.50
2018-12-21T01:36:28.899Z,16.40
2018-12-21T01:38:57.304Z,14.87
2018-12-21T01:41:25.764Z,13.10
2018-12-21T01:43:54.195Z,13.80
2018-12-21T01:46:22.680Z,13.50
2018-12-21T01:48:51.125Z,14.40
2018-12-21T01:51:19.697Z,14.23
2018-12-21T01:53:48.617Z,13.27
2018-12-21T01:56:17.067Z,12.47
2018-12-21T01:58:45.455Z,14.13
2018-12-21T02:01:13.928Z,15.07
2018-12-21T02:03:42.384Z,15.77
2018-12-21T02:06:10.859Z,15.63
2018-12-21T02:08:39.266Z,18.37
2018-12-21T02:11:07.737Z,16.33
2018-12-21T02:13:36.192Z,15.63
2018-12-21T02:16:04.717Z,15.07
2018-12-21T02:18:33.152Z,14.63
2018-12-21T02:21:01.574Z,15.97
2018-12-21T02:23:29.957Z,11.90
2018-12-21T02:25:59.054Z,13.47
2018-12-21T02:28:27.492Z,15.73
2018-12-21T02:30:55.975Z,13.43
2018-12-21T02:33:25.025Z,14.43
2018-12-21T02:35:53.527Z,12.07
2018-12-21T02:38:21.956Z,12.60
2018-12-21T02:40:50.367Z,16.20
2018-12-21T02:43:18.798Z,15.80
2018-12-21T02:45:47.216Z,12.73
2018-12-21T02:48:15.686Z,14.07
2018-12-21T02:50:44.101Z,17.23
2018-12-21T02:53:12.525Z,17.63
2018-12-21T02:55:41.337Z,15.93
2018-12-21T02:58:09.757Z,16.13
2018-12-21T03:00:38.183Z,16.20
2018-12-21T03:03:06.838Z,18.40
2018-12-21T03:05:35.235Z,14.67
2018-12-21T03:08:03.670Z,15.93
2018-12-21T03:10:32.100Z,18.03
2018-12-21T03:13:00.494Z,17.23
2018-12-21T03:15:29.478Z,17.87
2018-12-21T03:17:57.917Z,16.17
2018-12-21T03:20:26.422Z,11.13
2018-12-21T03:22:54.864Z,16.90
2018-12-21T03:25:23.875Z,17.77
2018-12-21T03:27:52.753Z,14.07
2018-12-21T03:30:21.169Z,14.47
2018-12-21T03:32:49.620Z,18.07
2018-12-21T03:35:18.031Z,14.87
2018-12-21T03:37:46.589Z,13.43
2018-12-21T03:40:15.649Z,10.53
2018-12-21T03:42:44.068Z,11.07
2018-12-21T03:45:12.604Z,10.87
2018-12-21T03:47:41.104Z,9.93
2018-12-21T03:50:09.867Z,9.23
2018-12-21T03:52:38.508Z,14.47
2018-12-21T03:55:07.268Z,8.13
2018-12-21T03:57:36.466Z,8.17
2018-12-21T04:00:06.003Z,7.53
2018-12-21T04:02:34.386Z,6.63
2018-12-21T04:05:02.928Z,6.97
2018-12-21T04:07:31.364Z,9.43
2018-12-21T04:09:59.786Z,5.97
2018-12-21T04:12:28.550Z,5.47
2018-12-21T04:14:57.175Z,5.30
2018-12-21T04:17:25.761Z,4.83
2018-12-21T04:19:54.902Z,4.47
2018-12-21T04:22:23.453Z,4.97
2018-12-21T04:24:51.830Z,5.63
2018-12-21T04:27:20.266Z,5.03
2018-12-21T04:29:48.696Z,3.87
2018-12-21T04:32:17.257Z,8.00
2018-12-21T04:34:46.427Z,5.80
2018-12-21T04:37:15.070Z,5.77
2018-12-21T04:39:43.717Z,5.13
2018-12-21T04:42:12.202Z,5.30
2018-12-21T04:44:40.777Z,3.90
2018-12-21T04:47:09.205Z,5.10
2018-12-21T04:49:37.654Z,7.10
2018-12-21T04:52:06.197Z,5.50
2018-12-21T04:54:34.609Z,7.67
2018-12-21T04:57:03.005Z,6.60
2018-12-21T04:59:31.406Z,6.87
2018-12-21T05:01:59.885Z,7.47
2018-12-21T05:04:28.834Z,10.07
2018-12-21T05:06:57.216Z,8.60
2018-12-21T05:09:25.638Z,8.73
2018-12-21T05:11:54.389Z,8.00
2018-12-21T05:14:22.797Z,7.20
2018-12-21T05:16:51.315Z,11.23
2018-12-21T05:19:19.735Z,9.30
2018-12-21T05:21:48.231Z,8.70
2018-12-21T05:24:16.756Z,8.53
2018-12-21T05:26:45.239Z,7.90
2018-12-21T05:29:13.800Z,6.00
2018-12-21T05:31:42.275Z,7.17
2018-12-21T05:34:10.770Z,10.33
2018-12-21T05:36:39.197Z,8.70
2018-12-21T05:39:07.605Z,7.57
2018-12-21T05:41:35.978Z,6.57
2018-12-21T05:44:04.617Z,8.73
2018-12-21T05:46:33.118Z,8.83
2018-12-21T05:49:01.793Z,6.93
2018-12-21T05:51:30.423Z,9.93
2018-12-21T05:53:58.840Z,10.17
2018-12-21T05:56:27.251Z,7.17
2018-12-21T05:58:56.163Z,7.00
2018-12-21T06:01:24.790Z,5.70
2018-12-21T06:03:53.321Z,7.53
2018-12-21T06:06:22.844Z,8.90
2018-12-21T06:08:51.246Z,9.00
2018-12-21T06:11:19.780Z,6.27
2018-12-21T06:13:48.178Z,7.67
2018-12-21T06:16:16.605Z,9.93
2018-12-21T06:18:45.239Z,8.30
2018-12-21T06:21:14.097Z,9.53
2018-12-21T06:23:42.616Z,8.53
2018-12-21T06:26:11.044Z,12.07
2018-12-21T06:28:40.501Z,8.93
2018-12-21T06:31:09.105Z,9.77
2018-12-21T06:33:37.543Z,11.83
2018-12-21T06:36:05.945Z,12.73
2018-12-21T06:38:34.353Z,11.43
2018-12-21T06:41:02.795Z,14.53
2018-12-21T06:43:31.342Z,14.30
2018-12-21T06:45:59.787Z,14.20
2018-12-21T06:48:28.773Z,12.90
2018-12-21T06:50:57.213Z,14.27
2018-12-21T06:53:25.633Z,13.53
2018-12-21T06:55:54.459Z,12.20
2018-12-21T06:58:22.898Z,13.90
2018-12-21T07:00:51.300Z,16.53
2018-12-21T07:03:19.816Z,15.03
2018-12-21T07:05:48.286Z,11.80
2018-12-21T07:08:16.784Z,14.77
2018-12-21T07:10:45.207Z,12.03
2018-12-21T07:13:13.638Z,10.27
2018-12-21T07:15:42.165Z,11.37
2018-12-21T07:18:10.621Z,10.70
2018-12-21T07:20:40.168Z,15.40
2018-12-21T07:23:08.878Z,8.90
2018-12-21T07:25:37.474Z,13.57
2018-12-21T07:28:05.956Z,7.87
2018-12-21T07:30:34.668Z,9.90
2018-12-21T07:33:03.165Z,8.50
2018-12-21T07:35:32.330Z,13.90
2018-12-21T07:38:00.858Z,12.60
2018-12-21T07:40:29.367Z,6.47
2018-12-21T07:42:58.468Z,6.60
2018-12-21T07:45:26.998Z,8.97
2018-12-21T07:47:55.668Z,9.13
2018-12-21T07:50:24.217Z,8.37
2018-12-21T07:52:53.376Z,8.07
2018-12-21T07:55:22.505Z,6.30
2018-12-21T07:57:52.065Z,6.10
2018-12-21T08:00:20.693Z,8.43
2018-12-21T08:02:49.819Z,13.30
2018-12-21T08:05:18.745Z,10.13
2018-12-21T08:07:47.361Z,14.13
2018-12-21T08:10:18.783Z,14.60
2018-12-21T08:12:48.232Z,8.17
2018-12-21T08:15:16.694Z,10.07
2018-12-21T08:17:45.686Z,6.40
2018-12-21T08:20:14.642Z,11.47
2018-12-21T08:22:43.532Z,12.47
2018-12-21T08:25:12.139Z,7.87
2018-12-21T08:27:41.080Z,8.60
2018-12-21T08:30:10.511Z,7.93
2018-12-21T08:32:39.079Z,8.13
2018-12-21T08:35:07.866Z,10.50
2018-12-21T08:37:36.529Z,7.23
2018-12-21T08:40:07.112Z,8.97
2018-12-21T08:42:35.790Z,11.83
2018-12-21T08:45:05.624Z,7.23
2018-12-21T08:47:34.325Z,11.13
2018-12-21T08:50:03.292Z,7.03
2018-12-21T08:52:31.797Z,7.00
2018-12-21T08:55:00.395Z,10.50
2018-12-21T08:57:28.901Z,6.13
2018-12-21T08:59:57.487Z,7.77
2018-12-21T09:02:26.708Z,8.63
2018-12-21T09:04:59.050Z,8.77
2018-12-21T09:07:27.712Z,11.17
2018-12-21T09:09:56.233Z,8.20
2018-12-21T09:12:25.168Z,11.43
2018-12-21T09:14:53.826Z,11.50
2018-12-21T09:17:22.413Z,7.43
2018-12-21T09:19:50.922Z,7.53
2018-12-21T09:22:20.066Z,9.27
2018-12-21T09:24:48.568Z,7.77
2018-12-21T09:27:17.104Z,10.90
2018-12-21T09:29:45.577Z,8.87
2018-12-21T09:32:14.217Z,10.53
2018-12-21T09:34:43.137Z,10.63
2018-12-21T09:37:12.174Z,12.00
2018-12-21T09:39:40.694Z,8.03
2018-12-21T09:42:09.275Z,7.93
2018-12-21T09:44:37.797Z,5.80
2018-12-21T09:47:06.591Z,7.87
2018-12-21T09:49:35.160Z,4.30
2018-12-21T09:52:03.695Z,5.37
2018-12-21T09:54:32.493Z,10.93
2018-12-21T09:57:01.055Z,12.10
2018-12-21T09:59:29.568Z,7.77
2018-12-21T10:01:58.094Z,10.37
2018-12-21T10:04:27.422Z,8.47
2018-12-21T10:06:55.940Z,9.37
2018-12-21T10:09:24.427Z,5.07
2018-12-21T10:11:52.934Z,8.83
2018-12-21T10:14:21.510Z,11.67
2018-12-21T10:16:49.938Z,7.50
2018-12-21T10:19:19.430Z,7.97
2018-12-21T10:21:47.867Z,8.40
2018-12-21T10:24:18.672Z,8.50
2018-12-21T10:26:46.928Z,6.57
2018-12-21T10:29:15.447Z,10.37
2018-12-21T10:31:43.885Z,7.63
2018-12-21T10:34:12.304Z,10.40
2018-12-21T10:36:40.823Z,6.43
2018-12-21T10:39:09.242Z,4.63
2018-12-21T10:41:37.677Z,10.20
2018-12-21T10:44:06.131Z,12.57
2018-12-21T10:46:34.529Z,9.43
2018-12-21T10:49:02.972Z,9.33
2018-12-21T10:51:31.580Z,9.00
2018-12-21T10:53:59.992Z,14.47
2018-12-21T10:56:28.542Z,12.20
2018-12-21T10:58:56.960Z,9.03
2018-12-21T11:01:25.534Z,10.10
2018-12-21T11:03:54.118Z,10.70
2018-12-21T11:06:22.676Z,15.73
2018-12-21T11:08:51.192Z,12.73
2018-12-21T11:11:20.010Z,7.47
2018-12-21T11:13:48.515Z,12.90
2018-12-21T11:16:18.224Z,12.37
2018-12-21T11:18:50.345Z,13.40
2018-12-21T11:21:19.080Z,18.30
2018-12-21T11:23:48.207Z,10.47
2018-12-21T11:26:16.884Z,12.00
2018-12-21T11:28:45.512Z,8.73
2018-12-21T11:31:14.176Z,12.13
2018-12-21T11:33:42.774Z,7.47
2018-12-21T11:36:11.273Z,8.93
2018-12-21T11:38:39.864Z,14.17
2018-12-21T11:41:08.451Z,13.97
2018-12-21T11:43:37.623Z,11.83
2018-12-21T11:46:06.276Z,11.10
2018-12-21T11:48:34.904Z,10.03
2018-12-21T11:51:03.565Z,10.20
2018-12-21T11:53:34.178Z,7.13
2018-12-21T11:56:02.716Z,8.80
2018-12-21T11:58:31.249Z,9.50
2018-12-21T12:00:59.750Z,9.00
2018-12-21T12:03:28.248Z,6.63
2018-12-21T12:05:56.840Z,8.50
2018-12-21T12:08:25.368Z,12.50
2018-12-21T12:10:54.075Z,7.40
2018-12-21T12:13:22.621Z,7.03
2018-12-21T12:15:51.163Z,7.67
2018-12-21T12:18:20.600Z,6.90
2018-12-21T12:20:49.336Z,6.77
2018-12-21T12:23:18.120Z,7.97
2018-12-21T12:25:46.629Z,8.27
2018-12-21T12:28:15.159Z,9.87
2018-12-21T12:30:43.746Z,9.23
2018-12-21T12:33:12.230Z,9.03
2018-12-21T12:35:40.803Z,6.17
2018-12-21T12:38:09.327Z,8.90
2018-12-21T12:40:37.910Z,9.17
2018-12-21T12:43:06.419Z,10.33
2018-12-21T12:45:34.858Z,8.20
2018-12-21T12:48:03.321Z,7.90
2018-12-21T12:50:31.769Z,8.20
2018-12-21T12:53:00.187Z,12.70
2018-12-21T12:55:28.805Z,12.27
2018-12-21T12:57:57.265Z,6.53
2018-12-21T13:00:25.701Z,7.47
2018-12-21T13:02:54.441Z,13.67
2018-12-21T13:05:22.979Z,9.17
2018-12-21T13:07:53.181Z,10.67
2018-12-21T13:10:21.649Z,8.83
2018-12-21T13:12:50.300Z,6.20
2018-12-21T13:15:18.932Z,9.70
2018-12-21T13:17:47.664Z,11.00
2018-12-21T13:20:16.443Z,9.27
2018-12-21T13:25:57.210Z,9.63
2018-12-21T13:28:32.489Z,8.10
2018-12-21T13:31:02.441Z,7.90
2018-12-21T13:33:33.004Z,11.13
2018-12-21T13:36:04.554Z,9.33
2018-12-21T13:38:38.126Z,8.33
2018-12-21T13:41:11.648Z,8.07
2018-12-21T13:43:40.630Z,9.80
2018-12-21T13:46:09.167Z,10.73
2018-12-21T13:48:42.436Z,8.77
2018-12-21T13:51:13.129Z,9.10
2018-12-21T13:53:42.570Z,9.00
2018-12-21T13:56:11.341Z,8.37
2018-12-21T13:58:39.892Z,6.10
2018-12-21T14:01:09.057Z,7.03
2018-12-21T14:03:37.730Z,9.03
2018-12-21T14:06:06.356Z,8.07
2018-12-21T14:08:35.822Z,7.90
2018-12-21T14:11:04.489Z,8.00
2018-12-21T14:13:33.119Z,6.90
2018-12-21T14:16:02.232Z,12.13
2018-12-21T14:18:31.124Z,8.80
2018-12-21T14:21:00.523Z,13.90
2018-12-21T14:23:29.266Z,10.03
2018-12-21T14:25:57.792Z,9.40
2018-12-21T14:28:26.199Z,11.33
2018-12-21T14:30:56.986Z,10.33
2018-12-21T14:33:25.419Z,12.73
2018-12-21T14:35:55.328Z,9.13
2018-12-21T14:38:28.545Z,8.37
2018-12-21T14:40:56.995Z,13.47
2018-12-21T14:43:26.081Z,8.00
2018-12-21T14:45:54.533Z,9.27
2018-12-21T14:48:22.980Z,10.07
2018-12-21T14:50:51.465Z,12.97
2018-12-21T14:53:19.887Z,11.83
2018-12-21T14:55:48.318Z,12.43
2018-12-21T14:58:16.735Z,11.50
2018-12-21T15:00:46.081Z,11.23
2018-12-21T15:03:16.611Z,12.40
2018-12-21T15:05:47.832Z,15.70
2018-12-21T15:08:16.637Z,12.07
2018-12-21T15:10:45.746Z,12.00
2018-12-21T15:13:15.478Z,10.60
2018-12-21T15:15:43.888Z,8.80
2018-12-21T15:18:12.519Z,10.00
2018-12-21T15:20:42.452Z,8.53
2018-12-21T15:23:13.805Z,11.97
2018-12-21T15:25:46.718Z,8.27
2018-12-21T15:28:18.667Z,8.20
2018-12-21T15:30:47.294Z,9.90
2018-12-21T15:33:15.795Z,11.00
2018-12-21T15:35:44.361Z,13.10
2018-12-21T15:38:12.951Z,18.93
2018-12-21T15:40:41.433Z,14.53
2018-12-21T15:43:09.962Z,14.03
2018-12-21T15:45:38.759Z,10.73
2018-12-21T15:48:07.889Z,8.50
2018-12-21T15:50:36.425Z,11.07
2018-12-21T15:53:04.909Z,14.30
2018-12-21T15:55:33.513Z,10.50
2018-12-21T15:58:03.045Z,11.07
2018-12-21T16:00:33.354Z,10.80
2018-12-21T16:03:03.130Z,17.17
2018-12-21T16:05:31.805Z,12.40
2018-12-21T16:08:00.300Z,12.10
2018-12-21T16:10:28.749Z,12.43
2018-12-21T16:12:57.376Z,12.07
2018-12-21T16:15:25.841Z,12.93
2018-12-21T16:17:54.262Z,25.30
2018-12-21T16:20:22.873Z,18.23
2018-12-21T16:22:51.327Z,20.00
2018-12-21T16:25:19.748Z,100.80
2018-12-21T16:27:48.213Z,72.43
2018-12-21T16:30:16.739Z,49.30
2018-12-21T16:32:45.285Z,25.47
2018-12-21T16:35:13.713Z,17.77
2018-12-21T16:37:42.223Z,15.97
2018-12-21T16:40:11.464Z,22.77
2018-12-21T16:42:40.052Z,20.70
2018-12-21T16:45:10.501Z,17.43
2018-12-21T16:47:38.929Z,21.50
2018-12-21T16:50:10.973Z,56.47
2018-12-21T16:52:39.531Z,21.57
2018-12-21T16:55:08.852Z,36.33
2018-12-21T16:57:37.284Z,62.67
2018-12-21T17:00:10.116Z,19.10
2018-12-21T17:02:38.665Z,36.20
2018-12-21T17:05:07.387Z,22.93
2018-12-21T17:07:35.949Z,28.40
2018-12-21T17:10:06.938Z,36.53
2018-12-21T17:12:35.368Z,84.27
2018-12-21T17:15:03.925Z,55.87
2018-12-21T17:17:32.374Z,32.60
2018-12-21T17:20:00.816Z,32.63
2018-12-21T17:22:29.264Z,27.93
2018-12-21T17:24:57.711Z,37.43
2018-12-21T17:27:26.151Z,54.17
2018-12-21T17:29:54.637Z,24.00
2018-12-21T17:32:23.182Z,36.93
2018-12-21T17:34:51.583Z,22.40
2018-12-21T17:37:20.072Z,21.57
2018-12-21T17:39:48.524Z,17.37
2018-12-21T17:42:17.035Z,18.97
2018-12-21T17:44:45.488Z,22.57
2018-12-21T17:47:13.995Z,16.63
2018-12-21T17:49:42.420Z,15.77
2018-12-21T17:52:11.004Z,16.80
2018-12-21T17:54:39.438Z,16.40
2018-12-21T17:57:08.785Z,19.43
2018-12-21T17:59:37.216Z,15.33
2018-12-21T18:02:05.672Z,17.83
2018-12-21T18:04:34.103Z,14.33
2018-12-21T18:07:03.323Z,14.87
2018-12-21T18:09:34.380Z,14.67
2018-12-21T18:12:02.854Z,12.87
2018-12-21T18:14:31.325Z,19.17
2018-12-21T18:17:00.557Z,20.50
2018-12-21T18:19:29.010Z,24.57
2018-12-21T18:22:02.046Z,17.83
2018-12-21T18:24:30.462Z,26.80
2018-12-21T18:26:58.981Z,12.53
2018-12-21T18:29:27.983Z,20.77
2018-12-21T18:32:09.529Z,15.50
2018-12-21T18:34:38.363Z,12.27
2018-12-21T18:37:09.192Z,10.07
2018-12-21T18:39:38.250Z,27.17
2018-12-21T18:42:06.719Z,26.30
2018-12-21T18:44:35.163Z,13.37
2018-12-21T18:47:03.584Z,13.73
2018-12-21T18:49:32.410Z,9.50
2018-12-21T18:52:00.844Z,14.83
2018-12-21T18:54:29.416Z,8.20
2018-12-21T18:57:03.517Z,7.47
2018-12-21T18:59:31.935Z,12.23
2018-12-21T19:02:00.332Z,12.37
2018-12-21T19:04:28.781Z,8.27
2018-12-21T19:06:57.151Z,10.43
2018-12-21T19:09:25.567Z,10.10
2018-12-21T19:11:53.979Z,8.20
2018-12-21T19:14:22.388Z,12.47
2018-12-21T19:16:50.785Z,16.37
2018-12-21T19:19:19.225Z,14.77
2018-12-21T19:21:47.612Z,14.43
2018-12-21T19:24:16.010Z,13.63
2018-12-21T19:26:44.454Z,14.90
2018-12-21T19:29:12.853Z,17.70
2018-12-21T19:31:41.270Z,17.97
2018-12-21T19:34:09.693Z,24.13
2018-12-21T19:36:38.097Z,16.73
2018-12-21T19:39:08.885Z,14.50
2018-12-21T19:41:37.358Z,14.93
2018-12-21T19:44:05.769Z,16.33
2018-12-21T19:46:34.161Z,8.67
2018-12-21T19:49:02.597Z,11.97
2018-12-21T19:51:30.990Z,12.93
2018-12-21T19:53:59.398Z,7.93
2018-12-21T19:57:31.478Z,12.30
2018-12-21T19:59:59.971Z,7.97
2018-12-21T20:02:28.372Z,11.50
2018-12-21T20:04:56.809Z,11.40
2018-12-21T20:07:25.221Z,11.90
2018-12-21T20:09:53.783Z,15.93
2018-12-21T20:12:25.258Z,13.37
2018-12-21T20:14:53.680Z,12.17
2018-12-21T20:17:22.094Z,15.37
2018-12-21T20:19:59.180Z,16.67
2018-12-21T20:22:28.397Z,17.67
2018-12-21T20:24:58.996Z,16.30
2018-12-21T20:27:27.406Z,11.43
2018-12-21T20:29:55.813Z,17.23
2018-12-21T20:32:24.229Z,18.47
2018-12-21T20:34:52.646Z,19.37
2018-12-21T20:37:21.042Z,13.97
2018-12-21T20:39:49.510Z,11.43
2018-12-21T20:42:17.915Z,49.47
2018-12-21T20:44:46.370Z,10.40
2018-12-21T20:47:18.422Z,12.93
2018-12-21T20:49:46.819Z,12.07
2018-12-21T20:52:15.215Z,12.83
2018-12-21T20:54:44.543Z,11.03
2018-12-21T20:57:21.899Z,10.50
2018-12-21T20:59:45.457Z,8.00
2018-12-21T21:02:13.888Z,22.07
2018-12-21T21:04:42.306Z,15.47
2018-12-21T21:07:10.738Z,10.40
2018-12-21T21:09:39.121Z,37.60
2018-12-21T21:12:07.537Z,32.50
2018-12-21T21:14:36.473Z,13.07
2018-12-21T21:17:05.089Z,24.77
2018-12-21T21:19:36.829Z,13.77
2018-12-21T21:22:05.236Z,13.57
2018-12-21T21:24:33.643Z,8.60
2018-12-21T21:27:02.058Z,11.70
2018-12-21T21:29:30.469Z,9.97
2018-12-21T21:31:59.439Z,7.63
2018-12-21T21:34:28.306Z,10.70
2018-12-21T21:36:56.730Z,8.53
2018-12-21T21:39:25.145Z,8.17
2018-12-21T21:41:53.748Z,13.53
2018-12-21T21:44:22.297Z,5.53
2018-12-21T21:46:50.667Z,7.30
2018-12-21T21:49:19.503Z,6.93
2018-12-21T21:51:48.137Z,8.47
2018-12-21T21:54:16.634Z,6.30
2018-12-21T21:56:45.060Z,6.80
2018-12-21T21:59:14.037Z,7.77
2018-12-21T22:01:43.223Z,4.07
2018-12-21T22:04:12.315Z,7.13
2018-12-21T22:06:40.936Z,2.77
2018-12-21T22:09:09.610Z,4.20
2018-12-21T22:11:38.070Z,3.13
2018-12-21T22:14:06.549Z,2.77
2018-12-21T22:16:34.960Z,5.70
2018-12-21T22:19:03.396Z,3.70
2018-12-21T22:21:31.909Z,5.67
2018-12-21T22:24:00.326Z,3.77
2018-12-21T22:26:28.941Z,3.33
2018-12-21T22:28:57.358Z,4.87
2018-12-21T22:31:25.780Z,2.90
2018-12-21T22:33:54.273Z,4.40
2018-12-21T22:36:22.721Z,3.23
2018-12-21T22:38:51.134Z,4.23
2018-12-21T22:41:19.611Z,4.13
2018-12-21T22:43:48.181Z,3.07
2018-12-21T22:46:16.739Z,3.63
2018-12-21T22:48:45.372Z,3.87
2018-12-21T22:51:13.789Z,2.43
2018-12-21T22:53:42.200Z,2.30
2018-12-21T22:56:10.732Z,3.60
2018-12-21T22:58:39.165Z,1.93
2018-12-21T23:01:07.700Z,2.03
2018-12-21T23:03:36.510Z,2.73
2018-12-21T23:06:05.099Z,2.43
2018-12-21T23:08:33.635Z,1.10
2018-12-21T23:11:02.109Z,2.33
2018-12-21T23:13:30.630Z,3.23
2018-12-21T23:15:59.147Z,2.23
2018-12-21T23:18:27.649Z,2.13
2018-12-21T23:20:56.092Z,4.30
2018-12-21T23:23:24.628Z,2.13
2018-12-21T23:25:53.069Z,1.63
2018-12-21T23:28:21.469Z,1.37
2018-12-21T23:30:49.929Z,1.37
2018-12-21T23:33:18.460Z,2.00
2018-12-21T23:35:48.425Z,1.87
2018-12-21T23:38:18.338Z,2.07
2018-12-21T23:40:51.726Z,2.10
2018-12-21T23:43:22.247Z,3.03
2018-12-21T23:45:50.941Z,1.37
2018-12-21T23:48:19.365Z,2.17
2018-12-21T23:50:48.434Z,2.87
2018-12-21T23:53:16.913Z,0.90
2018-12-21T23:55:45.307Z,1.43
2018-12-21T23:58:14.176Z,2.20
